Metar Cercanos

 

LEPA - Palma De Mallorc, Spain
Distance from station: ONO 38km
Actualización: 22/01/2018 01:00
Despejado
Despejado
 Viento del ONO
Viento: ONO 17 km/h, Racha: 35 km/h
Temperatura: 18°C
Rocío: 9°C
Humedad: 56%
Barómetro: 1023 hPa
Resumen: Despejado
Visibility: greater than 10 km
2018/01/22 00:00 LEPA 220000Z 29009G19KT 260V320 CAVOK 18/09 Q1023 NOSIG
LEMH - Mahon/Menorca Is, Spain
Distance from station: ENE 105km
Actualización: 22/01/2018 01:00
Despejado
Despejado
 Viento del ONO
Viento: ONO 24 km/h
Temperatura: 16°C
Rocío: 10°C
Humedad: 68%
Barómetro: 1022 hPa
Resumen: Despejado
Visibility: greater than 10 km
2018/01/22 00:00 LEMH 220000Z AUTO 30013KT 260V330 CAVOK 16/10 Q1022
 
LEIB - Ibiza/Es Codola, Spain
Distance from station: OSO 165km
Actualización: 22/01/2018 00:00
NOT Current
Despejado
Despejado
 Viento del SO
Viento: SO 6 km/h
Temperatura: 14°C
Rocío: 11°C
Humedad: 82%
Barómetro: 1025 hPa
Resumen: Despejado
Visibility: greater than 10 km
2018/01/21 23:00 LEIB 212300Z 23003KT 190V260 CAVOK 14/11 Q1025 NOSIG
LEBL - Barcelona Airpor, Spain
Distance from station: NNO 225km
Actualización: 22/01/2018 01:00
Despejado
Despejado
 Viento del NNO
Viento: NNO 26 km/h
Temperatura: 15°C
Rocío: 8°C
Humedad: 63%
Barómetro: 1021 hPa
Resumen: Despejado
Visibility: greater than 10 km
2018/01/22 00:00 LEBL 220000Z 33014KT CAVOK 15/08 Q1021 NOSIG
 
LEVC - Valencia (civ/Mi, Spain
Distance from station: NO 188km
Actualización: 22/01/2018 01:00
Despejado
Despejado
 Viento del O
Viento: O 7 km/h
Temperatura: 13°C
Rocío: 6°C
Humedad: 63%
Barómetro: 1025 hPa
Resumen: Despejado
Visibility: greater than 10 km
2018/01/22 00:00 LEVC 220000Z 27004KT CAVOK 13/06 Q1025 NOSIG
LEGE - Gerona/Costa Bra, Spain
Distance from station: N 276km
Actualización: 22/01/2018 01:00
Few Clouds
Few Clouds
 Viento del varies
Viento: varies 2 km/h
Temperatura: 8°C
Rocío: 7°C
Humedad: 93%
Barómetro: 1021 hPa
Clouds: Few Clouds
Visibility: 10 km
Cloud details: Few Clouds 914 m
2018/01/22 00:00 LEGE 220000Z VRB01KT 9999 FEW030 08/07 Q1021
 
LEAL - Alicante/El Alte, Spain
Distance from station: OSO 344km
Actualización: 22/01/2018 01:00
Despejado
Despejado
 Viento del O
Viento: O 17 km/h
Temperatura: 17°C
Rocío: 8°C
Humedad: 56%
Barómetro: 1025 hPa
Resumen: Despejado
Visibility: greater than 10 km
2018/01/22 00:00 LEAL 220000Z 27009KT 240V310 CAVOK 17/08 Q1025 NOSIG
LEAM - Almeria Airport, Spain
Distance from station: SSO 56km
Actualización: 22/01/2018 01:00
Despejado
Despejado
 Viento del calm
Viento: Calma
Temperatura: 12°C
Rocío: 6°C
Humedad: 67%
Barómetro: 1026 hPa
Clouds: Despejado
Visibility: 10 km
2018/01/22 00:00 LEAM 220000Z AUTO 00000KT 9999 NCD 12/06 Q1026
 
LEZG - Zaragoza (mil/Ci, Spain
Distance from station: NO 431km
Actualización: 22/01/2018 01:00
Parcialmente nuboso
Parcialmente nuboso
 Viento del OSO
Viento: OSO 20 km/h
Temperatura: 12°C
Rocío: 8°C
Humedad: 77%
Barómetro: 1028 hPa
Clouds: Parcialmente nuboso
Visibility: 10 km
Cloud details: Parcialmente nuboso 1372 m
2018/01/22 00:00 LEZG 220000Z 25011KT 9999 SCT045 12/08 Q1028
LEMD - Madrid/Barajas, Spain
Distance from station: ONO 234km
Actualización: 22/01/2018 01:00
Despejado
Despejado
 Viento del N
Viento: N 7 km/h
Temperatura: 6°C
Sensación frio: 4°C
Rocío: 5°C
Humedad: 93%
Barómetro: 1030 hPa
Resumen: Despejado
Visibility: greater than 10 km
2018/01/22 00:00 LEMD 220000Z 35004KT CAVOK 06/05 Q1030 NOSIG
 
LEGR - Granada Airport, Spain
Distance from station: OSO 62km
Actualización: 22/01/2018 01:00
Despejado
Despejado
 Viento del varies
Viento: varies 2 km/h
Temperatura: 5°C
Rocío: 4°C
Humedad: 93%
Barómetro: 1030 hPa
Clouds: Despejado
Visibility: 10 km
2018/01/22 00:00 LEGR 220000Z AUTO VRB01KT 9999 NCD 05/04 Q1030
LEMG - Malaga (civ/Mil), Spain
Distance from station: OSO 227km
Actualización: 22/01/2018 01:00
Despejado
Despejado
 Viento del O
Viento: O 37 km/h
Temperatura: 16°C
Rocío: 9°C
Humedad: 63%
Barómetro: 1027 hPa
Resumen: Despejado
Visibility: greater than 10 km
2018/01/22 00:00 LEMG 220000Z 28020KT CAVOK 16/09 Q1027 NOSIG
 
LEZL - Sevilla (civ/Mil, Spain
Distance from station: S 318km
Actualización: 22/01/2018 01:00
Parcialmente nuboso
Parcialmente nuboso
 Viento del calm
Viento: Calma
Temperatura: 9°C
Rocío: 8°C
Humedad: 94%
Barómetro: 1030 hPa
Clouds: Parcialmente nuboso
Visibility: 9 km
2018/01/22 00:00 LEZL 220000Z 00000KT 9000 NSC 09/08 Q1030 NOSIG
LEVT - Vitoria, Spain
Distance from station: NO 226km
Actualización: 22/01/2018 01:00
Niebla, Few clouds
Niebla, Few clouds
 Viento del calm
Viento: Calma
Temperatura: 4°C
Rocío: 4°C
Humedad: 100%
Barómetro: 1029 hPa
Resumen: Niebla
Clouds: Few Clouds
Visibility: 1 km
Cloud details: Few Clouds 427 m
2018/01/22 00:00 LEVT 220000Z 00000KT 0600 R04/0900U R22/0750N FG FEW014 04/04 Q1029
 
LEBB - Bilbao/Sondica, Spain
Distance from station: NNO 235km
Actualización: 22/01/2018 01:00
Niebla, Few clouds
Niebla, Few clouds
 Viento del calm
Viento: Calma
Temperatura: 10°C
Rocío: 10°C
Humedad: 100%
Barómetro: 1029 hPa
Resumen: Niebla
Clouds: Few Clouds
Visibility: 0 km
Cloud details: Few Clouds 1433 m
2018/01/22 00:00 LEBB 220000Z AUTO 00000KT 0450 R30/1200D R12/1300U FG FEW047 10/10 Q1029
LESO - San Sebastian/Fu, Spain
Distance from station: N 231km
Actualización: 22/01/2018 01:00
Muy nuboso
Muy nuboso
 Viento del varies
Viento: varies 2 km/h
Temperatura: 14°C
Rocío: 12°C
Humedad: 88%
Barómetro: 1029 hPa
Clouds: Muy nuboso
Visibility: 10 km
Cloud details: Muy nuboso 671 m
2018/01/22 00:00 LESO 220000Z AUTO VRB01KT 9999 BKN022/// 14/12 Q1029
 
LEVD - Valladolid(Mil/C, Spain
Distance from station: ONO 239km
Actualización: 21/01/2018 21:30
NOT Current
Parcialmente nuboso
Parcialmente nuboso
 Viento del SSO
Viento: SSO 11 km/h
Temperatura: 6°C
Sensación frio: 4°C
Rocío: 5°C
Humedad: 93%
Barómetro: 1030 hPa
Clouds: Parcialmente nuboso
Visibility: 10 km
Cloud details: Parcialmente nuboso 396 m
2018/01/21 20:30 LEVD 212030Z 20006KT 9999 SCT013 06/05 Q1030
LESA - Salamanca (civ/M, Spain
Distance from station: ONO 349km
Actualización: 21/01/2018 19:30
NOT Current
Cubierto
Cubierto
 Viento del O
Viento: O 13 km/h
Temperatura: 8°C
Sensación frio: 6°C
Rocío: 6°C
Humedad: 87%
Barómetro: 1031 hPa
Clouds: Cubierto
Visibility: 10 km
Cloud details: Cubierto 396 m
2018/01/21 18:30 LESA 211830Z 28007KT 9999 OVC013 08/06 Q1031
 
LEXJ - Santander/Paraya, Spain
Distance from station: NNO 247km
Actualización: 22/01/2018 01:00
Few Clouds
Few Clouds
 Viento del SSO
Viento: SSO 4 km/h
Temperatura: 13°C
Rocío: 11°C
Humedad: 88%
Barómetro: 1029 hPa
Clouds: Few Clouds
Visibility: 7 km
Cloud details: Few Clouds 701 m
2018/01/22 00:00 LEXJ 220000Z AUTO 21002KT 7000 FEW023/// 13/11 Q1029
LEAS - Asturias/Aviles, Spain
Distance from station: NO 214km
Actualización: 22/01/2018 01:00
Mist, Parcialmente nuboso
Mist, Parcialmente nuboso
 Viento del O
Viento: O 9 km/h
Temperatura: 11°C
Rocío: 9°C
Humedad: 88%
Barómetro: 1028 hPa
Resumen: Mist
Clouds: Parcialmente nuboso
Visibility: 5 km
2018/01/22 00:00 LEAS 220000Z AUTO 26005KT 5000 1900W BR NSC 11/09 Q1028
 
LECO - La Coruna/Alvedr, Spain
Distance from station: ONO 222km
Actualización: 22/01/2018 01:00
Patches of fog, Muy nuboso
Patches of fog, Muy nuboso
 Viento del varies
Viento: varies 2 km/h
Temperatura: 12°C
Rocío: 12°C
Humedad: 100%
Barómetro: 1031 hPa
Resumen: Patches of Fog
Clouds: Muy nuboso
Visibility: 10 km
Cloud details: Few Clouds 305 m
Muy nuboso 1067 m
2018/01/22 00:00 LECO 220000Z VRB01KT 9999 0700SE BCFG FEW010 BKN035 12/12 Q1031 TEMPO 0800 BCFG
LEVX - Vigo/Peinador, Spain
Distance from station: O 214km
Actualización: 22/01/2018 01:00
Patches of fog, Light drizzle, Muy nuboso
Patches of fog, Light drizzle, Muy nuboso
 Viento del OSO
Viento: OSO 6 km/h
Temperatura: 11°C
Rocío: 11°C
Humedad: 100%
Barómetro: 1032 hPa
Resumen: Patches of fog, Light drizzle
Clouds: Muy nuboso
Visibility: 3 km
Cloud details: Parcialmente nuboso 91 m
Muy nuboso 274 m
Muy nuboso 579 m
2018/01/22 00:00 LEVX 220000Z 25003KT 220V290 3000 BCFG -DZ SCT003 BKN009 BKN019 11/11 Q1032 TEMPO 0800 FG